createdAt,value
2023-03-05T00:04:09.313Z,0.60
2023-03-05T00:09:08.917Z,0.30
2023-03-05T00:24:47.600Z,0.30
2023-03-05T00:27:16.050Z,0.30
2023-03-05T00:42:08.276Z,0.40
2023-03-05T00:59:30.502Z,0.40
2023-03-05T01:14:22.493Z,0.40
2023-03-05T01:16:51.923Z,0.40
2023-03-05T01:26:46.233Z,0.40
2023-03-05T01:34:13.768Z,0.40
2023-03-05T01:36:42.633Z,0.40
2023-03-05T01:46:37.027Z,0.40
2023-03-05T01:49:16.500Z,0.40
2023-03-05T01:51:51.625Z,0.40
2023-03-05T01:54:23.792Z,0.40
2023-03-05T01:56:54.380Z,0.40
2023-03-05T01:59:24.454Z,0.40
2023-03-05T02:01:56.652Z,0.40
2023-03-05T02:04:33.303Z,0.40
2023-03-05T02:19:28.059Z,0.40
2023-03-05T02:21:57.440Z,0.40
2023-03-05T02:24:37.709Z,0.40
2023-03-05T02:27:06.518Z,0.40
2023-03-05T02:29:36.125Z,0.40
2023-03-05T02:37:04.679Z,0.40
2023-03-05T02:51:57.017Z,0.40
2023-03-05T02:54:26.582Z,0.30
2023-03-05T03:11:47.341Z,0.30
2023-03-05T03:16:43.779Z,0.30
2023-03-05T03:19:11.857Z,0.30
2023-03-05T03:21:41.501Z,0.30
2023-03-05T03:24:09.525Z,0.30
2023-03-05T03:26:38.012Z,0.30
2023-03-05T03:29:07.604Z,0.30
2023-03-05T03:31:35.755Z,0.30
2023-03-05T03:39:02.174Z,0.30
2023-03-05T03:46:29.969Z,0.20
2023-03-05T03:53:54.949Z,0.30
2023-03-05T04:03:50.195Z,0.20
2023-03-05T04:19:42.900Z,0.30
2023-03-05T04:24:59.561Z,0.30
2023-03-05T04:32:28.658Z,0.30
2023-03-05T04:34:58.405Z,0.30
2023-03-05T04:37:27.376Z,0.30
2023-03-05T04:39:55.711Z,0.30
2023-03-05T04:44:52.568Z,0.30
2023-03-05T04:47:21.335Z,0.30
2023-03-05T04:52:19.316Z,0.30
2023-03-05T04:59:44.038Z,0.30
2023-03-05T05:02:12.075Z,0.30
2023-03-05T05:09:39.724Z,0.30
2023-03-05T05:12:08.683Z,0.30
2023-03-05T05:14:36.647Z,0.30
2023-03-05T05:22:02.369Z,0.20
2023-03-05T05:24:30.390Z,0.20
2023-03-05T05:26:59.773Z,1.70
2023-03-05T05:29:27.765Z,0.20
2023-03-05T05:34:25.369Z,0.10
2023-03-05T05:36:54.103Z,0.20
2023-03-05T05:39:22.073Z,0.20
2023-03-05T05:41:51.993Z,0.20
2023-03-05T05:44:21.314Z,0.20
2023-03-05T05:54:15.549Z,0.10
2023-03-05T05:59:12.250Z,0.20
2023-03-05T06:01:41.782Z,0.20
2023-03-05T06:06:38.107Z,0.20
2023-03-05T06:09:06.676Z,0.20
2023-03-05T06:14:03.812Z,0.20
2023-03-05T06:19:04.523Z,0.30
2023-03-05T06:31:28.787Z,0.30
2023-03-05T06:33:58.134Z,0.30
2023-03-05T06:36:27.776Z,0.30
2023-03-05T06:41:26.835Z,0.30
2023-03-05T06:43:55.711Z,0.30
2023-03-05T06:46:25.786Z,0.40
2023-03-05T06:48:57.110Z,0.40
2023-03-05T06:51:28.848Z,0.40
2023-03-05T06:54:00.485Z,0.50
2023-03-05T06:56:28.867Z,0.50
2023-03-05T06:58:56.994Z,0.60
2023-03-05T07:01:25.154Z,0.60
2023-03-05T07:03:55.483Z,0.60
2023-03-05T07:06:24.141Z,0.70
2023-03-05T07:08:56.423Z,0.70
2023-03-05T07:11:25.219Z,0.70
2023-03-05T07:16:23.793Z,0.70
2023-03-05T07:18:51.951Z,0.80
2023-03-05T07:21:22.934Z,0.80
2023-03-05T07:23:54.262Z,0.90
2023-03-05T07:26:23.655Z,0.90
2023-03-05T07:28:52.560Z,0.90
2023-03-05T07:31:27.543Z,0.90
2023-03-05T07:38:55.026Z,4.00
2023-03-05T07:43:53.479Z,1.10
2023-03-05T07:46:24.171Z,1.00
2023-03-05T07:51:24.332Z,1.00
2023-03-05T07:53:57.460Z,1.40
2023-03-05T07:56:29.832Z,1.10
2023-03-05T08:11:22.264Z,1.30
2023-03-05T08:16:21.332Z,1.30
2023-03-05T08:21:20.307Z,1.40
2023-03-05T08:26:19.037Z,1.40
2023-03-05T08:28:48.740Z,1.30
2023-03-05T08:31:18.987Z,1.40
2023-03-05T08:46:14.733Z,1.50
2023-03-05T08:51:13.615Z,1.50
2023-03-05T08:58:39.534Z,1.50
2023-03-05T09:03:40.301Z,1.60
2023-03-05T09:06:11.015Z,1.60
2023-03-05T09:11:10.115Z,1.70
2023-03-05T09:16:09.567Z,2.40
2023-03-05T09:18:40.218Z,1.70
2023-03-05T09:21:09.802Z,1.80
2023-03-05T09:28:35.336Z,1.80
2023-03-05T09:31:04.800Z,1.90
2023-03-05T09:36:02.943Z,2.20
2023-03-05T09:41:06.556Z,2.50
2023-03-05T09:43:45.459Z,2.50
2023-03-05T09:46:29.790Z,2.50
2023-03-05T09:49:06.160Z,2.60
2023-03-05T09:51:41.549Z,2.60
2023-03-05T09:54:15.442Z,2.60
2023-03-05T09:56:47.907Z,2.80
2023-03-05T09:59:27.680Z,2.90
2023-03-05T10:01:59.145Z,3.60
2023-03-05T10:04:30.182Z,3.30
2023-03-05T10:07:07.267Z,3.20
2023-03-05T10:09:47.728Z,3.70
2023-03-05T10:12:25.378Z,1.80
2023-03-05T10:14:57.292Z,3.30
2023-03-05T10:17:57.345Z,3.30
2023-03-05T10:20:52.506Z,3.30
2023-03-05T10:23:32.038Z,3.20
2023-03-05T10:26:08.970Z,3.20
2023-03-05T10:28:55.948Z,3.20
2023-03-05T10:31:47.602Z,3.20
2023-03-05T10:34:48.969Z,3.30
2023-03-05T10:37:56.874Z,3.30
2023-03-05T10:40:33.938Z,3.30
2023-03-05T10:43:15.129Z,3.20
2023-03-05T10:45:49.102Z,3.20
2023-03-05T10:48:37.342Z,2.60
2023-03-05T10:51:24.039Z,3.00
2023-03-05T10:54:01.320Z,3.10
2023-03-05T10:56:32.122Z,3.20
2023-03-05T11:01:32.004Z,3.40
2023-03-05T11:04:01.852Z,3.40
2023-03-05T11:06:38.553Z,3.60
2023-03-05T11:09:28.007Z,3.60
2023-03-05T11:12:22.101Z,3.60
2023-03-05T11:15:05.873Z,3.50
2023-03-05T11:17:37.590Z,5.00
2023-03-05T11:20:34.567Z,3.50
2023-03-05T11:23:10.980Z,3.50
2023-03-05T11:25:54.219Z,3.30
2023-03-05T11:28:33.263Z,3.30
2023-03-05T11:31:07.518Z,3.30
2023-03-05T11:33:38.299Z,3.20
2023-03-05T11:36:25.901Z,3.20
2023-03-05T11:38:57.597Z,3.20
2023-03-05T11:41:31.276Z,3.30
2023-03-05T11:44:05.819Z,3.30
2023-03-05T11:46:42.159Z,3.40
2023-03-05T11:51:44.979Z,3.40
2023-03-05T11:54:26.876Z,3.40
2023-03-05T11:59:34.989Z,1.60
2023-03-05T12:04:40.434Z,3.50
2023-03-05T12:07:14.717Z,3.50
2023-03-05T12:09:51.873Z,3.60
2023-03-05T12:12:36.195Z,3.50
2023-03-05T12:15:26.569Z,3.60
2023-03-05T12:18:08.559Z,3.60
2023-03-05T12:20:50.063Z,3.60
2023-03-05T12:23:26.790Z,3.50
2023-03-05T12:25:59.458Z,3.60
2023-03-05T12:28:58.144Z,3.60
2023-03-05T12:31:49.325Z,3.40
2023-03-05T12:34:38.121Z,3.50
2023-03-05T12:37:21.644Z,3.40
2023-03-05T12:39:52.971Z,3.30
2023-03-05T12:42:53.236Z,3.40
2023-03-05T12:45:31.154Z,3.30
2023-03-05T12:51:45.532Z,3.30
2023-03-05T12:54:39.962Z,3.30
2023-03-05T12:57:19.838Z,3.20
2023-03-05T12:59:53.022Z,4.90
2023-03-05T13:02:33.325Z,3.20
2023-03-05T13:05:08.564Z,3.20
2023-03-05T13:07:49.004Z,3.10
2023-03-05T13:10:34.755Z,3.20
2023-03-05T13:15:44.521Z,3.20
2023-03-05T13:18:38.764Z,3.20
2023-03-05T13:21:19.554Z,3.30
2023-03-05T13:24:22.141Z,5.50
2023-03-05T13:26:59.726Z,3.40
2023-03-05T13:29:34.538Z,3.30
2023-03-05T13:32:06.668Z,3.30
2023-03-05T13:34:47.770Z,3.40
2023-03-05T13:37:20.184Z,3.40
2023-03-05T13:39:53.449Z,3.30
2023-03-05T13:42:24.606Z,3.20
2023-03-05T13:44:57.260Z,3.20
2023-03-05T13:47:28.489Z,3.10
2023-03-05T13:49:57.456Z,3.10
2023-03-05T13:52:26.296Z,3.00
2023-03-05T13:54:55.746Z,3.10
2023-03-05T13:57:38.835Z,3.00
2023-03-05T14:00:09.416Z,3.00
2023-03-05T14:05:14.844Z,2.90
2023-03-05T14:07:43.436Z,2.90
2023-03-05T14:10:32.684Z,2.80
2023-03-05T14:13:03.736Z,2.80
2023-03-05T14:15:34.251Z,2.80
2023-03-05T14:18:19.231Z,2.80
2023-03-05T14:21:02.985Z,2.70
2023-03-05T14:23:42.968Z,2.70
2023-03-05T14:26:29.705Z,2.70
2023-03-05T14:29:00.285Z,2.70
2023-03-05T14:31:30.449Z,2.70
2023-03-05T14:34:03.873Z,2.70
2023-03-05T14:36:33.067Z,2.80
2023-03-05T14:39:06.934Z,2.80
2023-03-05T14:41:40.128Z,2.80
2023-03-05T14:44:13.985Z,2.80
2023-03-05T14:46:52.325Z,2.80
2023-03-05T14:49:20.373Z,2.80
2023-03-05T14:51:48.699Z,2.80
2023-03-05T14:54:22.787Z,2.80
2023-03-05T14:56:52.358Z,2.80
2023-03-05T15:01:50.839Z,2.90
2023-03-05T15:04:20.132Z,2.90
2023-03-05T15:06:50.978Z,2.80
2023-03-05T15:09:19.791Z,2.80
2023-03-05T15:11:48.503Z,2.90
2023-03-05T15:14:17.923Z,2.90
2023-03-05T15:16:47.822Z,2.90
2023-03-05T15:19:15.943Z,2.90
2023-03-05T15:24:14.770Z,2.90
2023-03-05T15:26:42.892Z,2.90
2023-03-05T15:29:10.974Z,2.80
2023-03-05T15:31:40.611Z,2.70
2023-03-05T15:36:36.900Z,2.70
2023-03-05T15:39:04.785Z,2.70
2023-03-05T15:41:34.888Z,2.70
2023-03-05T15:49:02.713Z,2.70
2023-03-05T15:53:58.990Z,2.60
2023-03-05T16:03:52.560Z,2.50
2023-03-05T16:06:24.944Z,2.50
2023-03-05T16:08:59.486Z,2.40
2023-03-05T16:11:28.271Z,2.40
2023-03-05T16:16:25.431Z,2.40
2023-03-05T16:18:54.697Z,2.30
2023-03-05T16:21:24.236Z,2.30
2023-03-05T16:23:52.319Z,2.30
2023-03-05T16:26:20.361Z,2.30
2023-03-05T16:28:48.450Z,2.20
2023-03-05T16:31:16.521Z,2.20
2023-03-05T16:33:44.723Z,2.20
2023-03-05T16:36:23.577Z,2.20
2023-03-05T16:38:52.999Z,2.10
2023-03-05T16:41:23.231Z,2.10
2023-03-05T16:43:53.466Z,2.10
2023-03-05T16:46:22.158Z,2.10
2023-03-05T16:51:20.009Z,2.00
2023-03-05T16:53:50.624Z,2.00
2023-03-05T16:58:47.239Z,2.00
2023-03-05T17:01:18.119Z,1.90
2023-03-05T17:03:46.783Z,1.90
2023-03-05T17:06:17.427Z,1.80
2023-03-05T17:08:47.514Z,1.80
2023-03-05T17:11:17.608Z,1.80
2023-03-05T17:13:48.746Z,1.80
2023-03-05T17:16:18.281Z,1.80
2023-03-05T17:18:46.600Z,1.80
2023-03-05T17:21:15.034Z,1.70
2023-03-05T17:23:43.803Z,1.70
2023-03-05T17:26:13.478Z,1.60
2023-03-05T17:28:43.342Z,1.70
2023-03-05T17:31:11.666Z,1.70
2023-03-05T17:33:41.484Z,1.60
2023-03-05T17:36:15.918Z,1.60
2023-03-05T17:38:44.276Z,1.70
2023-03-05T17:41:12.960Z,1.70
2023-03-05T17:43:42.382Z,1.60
2023-03-05T17:46:10.467Z,1.60
2023-03-05T17:48:39.238Z,1.60
2023-03-05T17:51:08.014Z,1.60
2023-03-05T17:53:38.888Z,1.60
2023-03-05T17:56:08.971Z,1.50
2023-03-05T17:58:37.203Z,1.50
2023-03-05T18:01:08.386Z,1.50
2023-03-05T18:03:36.904Z,1.50
2023-03-05T18:06:05.180Z,1.50
2023-03-05T18:08:33.224Z,1.50
2023-03-05T18:11:01.315Z,1.50
2023-03-05T18:13:29.364Z,1.40
2023-03-05T18:15:59.497Z,1.50
2023-03-05T18:18:28.928Z,1.40
2023-03-05T18:20:57.099Z,1.40
2023-03-05T18:23:25.095Z,1.40
2023-03-05T18:25:53.351Z,1.30
2023-03-05T18:28:22.794Z,1.30
2023-03-05T18:30:50.818Z,1.30
2023-03-05T18:33:20.991Z,1.30
2023-03-05T18:35:52.414Z,1.20
2023-03-05T18:38:21.206Z,1.20
2023-03-05T18:40:51.348Z,1.20
2023-03-05T18:43:21.120Z,1.20
2023-03-05T18:45:49.828Z,1.20
2023-03-05T18:48:17.956Z,1.20
2023-03-05T18:53:16.141Z,1.20
2023-03-05T18:55:44.995Z,1.10
2023-03-05T18:58:14.179Z,1.10
2023-03-05T19:00:42.919Z,1.10
2023-03-05T19:03:12.241Z,1.00
2023-03-05T19:05:40.866Z,1.10
2023-03-05T19:08:09.502Z,1.10
2023-03-05T19:10:40.642Z,1.10
2023-03-05T19:13:18.721Z,1.10
2023-03-05T19:15:46.840Z,1.00
2023-03-05T19:18:14.863Z,1.10
2023-03-05T19:23:11.293Z,1.00
2023-03-05T19:25:42.097Z,1.00
2023-03-05T19:43:01.690Z,1.00
2023-03-05T19:45:33.527Z,1.00
2023-03-05T20:00:27.536Z,0.90
2023-03-05T20:05:25.636Z,0.90
2023-03-05T20:07:53.614Z,0.90
2023-03-05T20:10:22.524Z,0.80
2023-03-05T20:12:51.025Z,0.90
2023-03-05T20:15:19.554Z,0.80
2023-03-05T20:17:49.085Z,1.00
2023-03-05T20:20:18.562Z,0.80
2023-03-05T20:22:47.811Z,0.70
2023-03-05T20:25:17.649Z,0.70
2023-03-05T20:27:45.592Z,0.60
2023-03-05T20:30:15.865Z,0.60
2023-03-05T20:32:44.046Z,0.60
2023-03-05T20:35:16.935Z,0.60
2023-03-05T20:38:00.164Z,0.60
2023-03-05T20:42:56.508Z,0.60
2023-03-05T20:45:24.455Z,0.60
2023-03-05T20:47:52.417Z,0.60
2023-03-05T20:50:22.374Z,0.60
2023-03-05T20:52:50.308Z,0.60
2023-03-05T20:55:18.268Z,0.60
2023-03-05T20:57:46.295Z,0.60
2023-03-05T21:00:15.207Z,0.60
2023-03-05T21:02:43.174Z,0.70
2023-03-05T21:05:12.560Z,0.70
2023-03-05T21:07:42.028Z,0.60
2023-03-05T21:10:11.127Z,0.70
2023-03-05T21:12:39.309Z,0.60
2023-03-05T21:15:08.575Z,0.60
2023-03-05T21:20:07.070Z,0.60
2023-03-05T21:22:35.225Z,0.70
2023-03-05T21:25:15.728Z,0.60
2023-03-05T21:27:44.210Z,0.70
2023-03-05T21:30:13.149Z,0.60
2023-03-05T21:35:13.301Z,0.60
2023-03-05T21:37:42.624Z,0.60
2023-03-05T21:40:14.646Z,0.60
2023-03-05T21:45:13.457Z,0.50
2023-03-05T21:47:41.641Z,0.50
2023-03-05T21:50:12.169Z,0.50
2023-03-05T21:52:40.425Z,0.50
2023-03-05T21:57:38.164Z,0.50
2023-03-05T22:00:08.304Z,0.50
2023-03-05T22:02:36.542Z,0.50
2023-03-05T22:07:32.951Z,0.40
2023-03-05T22:10:00.953Z,0.50
2023-03-05T22:12:43.040Z,0.40
2023-03-05T22:15:13.065Z,0.40
2023-03-05T22:17:41.010Z,0.40
2023-03-05T22:20:10.073Z,0.40
2023-03-05T22:25:07.198Z,0.40
2023-03-05T22:27:35.421Z,0.40
2023-03-05T22:30:04.128Z,0.40
2023-03-05T22:32:35.873Z,0.40
2023-03-05T22:35:05.574Z,0.40
2023-03-05T22:37:33.848Z,0.40
2023-03-05T22:40:01.742Z,0.40
2023-03-05T22:44:58.365Z,0.40
2023-03-05T22:47:27.094Z,0.40
2023-03-05T22:49:56.649Z,0.40
2023-03-05T22:54:55.945Z,0.30
2023-03-05T22:57:24.209Z,0.30
2023-03-05T22:59:52.096Z,0.30
2023-03-05T23:07:21.501Z,0.30
2023-03-05T23:09:53.657Z,0.20
2023-03-05T23:14:50.057Z,0.30
2023-03-05T23:22:15.403Z,0.30
2023-03-05T23:24:44.677Z,0.30
2023-03-05T23:27:16.640Z,0.30
2023-03-05T23:32:29.686Z,0.30
2023-03-05T23:34:57.672Z,0.30
2023-03-05T23:37:25.640Z,0.20
2023-03-05T23:39:54.996Z,2.90
2023-03-05T23:52:16.568Z,0.10
2023-03-05T23:57:14.375Z,0.10
2023-03-05T23:59:42.385Z,0.00
